TimeEDT,TemperatureF,Dew PointF,Humidity,Sea Level PressureIn,VisibilityMPH,Wind Direction,Wind SpeedMPH,Gust SpeedMPH,PrecipitationIn,Events,Conditions,WindDirDegrees,DateUTC
12:53 AM,51.1,45.0,80,30.20,10.0,ENE,3.5,-,N/A,,Clear,70,2013-03-10 05:53:00
1:53 AM,48.9,45.0,86,30.19,10.0,Calm,Calm,-,N/A,,Clear,0,2013-03-10 06:53:00
3:53 AM,50.0,46.0,86,30.17,10.0,Calm,Calm,-,N/A,,Clear,0,2013-03-10 07:53:00
4:53 AM,46.9,45.0,93,30.16,10.0,Calm,Calm,-,N/A,,Clear,0,2013-03-10 08:53:00
5:53 AM,48.0,46.0,93,30.17,10.0,Calm,Calm,-,N/A,,Clear,0,2013-03-10 09:53:00
6:53 AM,51.1,48.9,92,30.18,10.0,Calm,Calm,-,N/A,,Clear,0,2013-03-10 10:53:00
8:53 AM,55.0,52.0,89,30.22,10.0,Calm,Calm,-,N/A,,Clear,0,2013-03-10 12:53:00
9:53 AM,62.1,54.0,75,30.21,10.0,East,4.6,-,N/A,,Clear,90,2013-03-10 13:53:00
10:53 AM,68.0,52.0,56,30.17,10.0,ESE,15.0,-,N/A,,Clear,120,2013-03-10 14:53:00
11:53 AM,72.0,51.1,48,30.17,10.0,East,12.7,26.5,N/A,,Clear,100,2013-03-10 15:53:00
12:53 PM,75.0,51.1,43,30.15,10.0,SE,16.1,21.9,N/A,,Clear,130,2013-03-10 16:53:00
1:53 PM,75.9,50.0,40,30.14,10.0,ESE,11.5,18.4,N/A,,Clear,120,2013-03-10 17:53:00
2:53 PM,78.1,46.9,33,30.12,10.0,SE,12.7,20.7,N/A,,Clear,140,2013-03-10 18:53:00
3:53 PM,78.1,48.0,35,30.11,10.0,SSE,8.1,17.3,N/A,,Clear,150,2013-03-10 19:53:00
4:53 PM,78.1,48.0,35,30.10,10.0,SE,10.4,-,N/A,,Clear,130,2013-03-10 20:53:00
5:53 PM,77.0,48.0,36,30.10,10.0,ESE,12.7,-,N/A,,Clear,120,2013-03-10 21:53:00
6:53 PM,73.0,48.9,42,30.11,10.0,East,11.5,-,N/A,,Clear,100,2013-03-10 22:53:00
7:53 PM,69.1,50.0,51,30.12,10.0,ESE,8.1,-,N/A,,Clear,110,2013-03-10 23:53:00
8:53 PM,66.0,50.0,56,30.13,10.0,East,9.2,-,N/A,,Clear,100,2013-03-11 00:53:00
9:53 PM,63.0,51.1,65,30.14,10.0,East,6.9,-,N/A,,Clear,100,2013-03-11 01:53:00
10:53 PM,62.1,52.0,70,30.14,10.0,East,6.9,-,N/A,,Clear,100,2013-03-11 02:53:00
11:53 PM,57.9,52.0,81,30.14,10.0,East,5.8,-,N/A,,Clear,100,2013-03-11 03:53:00
12:53 AM,57.0,51.1,81,30.13,10.0,ESE,6.9,-,N/A,,Clear,110,2013-03-11 04:53:00